Time;durP1;ratioP1;P1;durP2;ratioP2;P2;SDS_P1;SDS_P2;PMS_P1;PMS_P2;Temp;Humidity;BMP_temperature;BMP_pressure;BME280_temperature;BME280_humidity;BME280_pressure;Samples;Min_cycle;Max_cycle;Signal;HPM_P1;HPM_P2
2021/07/11 20:43:54;;;;;;;6.07;3.30;;;23.10;99.90;;;;;;6172241;22;1248435;-70
2021/07/11 20:46:22;;;;;;;3.67;2.80;;;22.30;99.90;;;;;;6212913;23;20170;-70
2021/07/11 20:48:48;;;;;;;10.07;7.20;;;21.80;99.90;;;;;;6215614;23;20674;-70
2021/07/11 20:51:16;;;;;;;5.13;4.63;;;21.50;99.90;;;;;;6216113;23;20265;-71
2021/07/11 20:53:43;;;;;;;6.70;5.75;;;21.30;99.90;;;;;;6215091;23;20181;-71
2021/07/11 20:56:14;;;;;;;6.93;5.55;;;21.30;99.90;;;;;;6211781;23;20216;-71
2021/07/11 20:58:45;;;;;;;6.45;5.63;;;21.30;99.90;;;;;;6210066;23;20251;-71
2021/07/11 21:01:14;;;;;;;6.35;5.68;;;21.40;99.90;;;;;;6214368;23;20174;-71
2021/07/11 21:03:42;;;;;;;5.97;5.38;;;21.40;99.90;;;;;;6214661;23;20180;-70
2021/07/11 21:06:10;;;;;;;10.13;7.55;;;21.40;99.90;;;;;;6213768;23;20174;-70
2021/07/11 21:08:37;;;;;;;7.70;5.70;;;21.50;99.90;;;;;;6213474;23;20198;-69
2021/07/11 21:11:04;;;;;;;8.07;6.22;;;21.50;99.90;;;;;;6213664;23;20523;-72
2021/07/11 21:13:31;;;;;;;6.72;5.90;;;21.60;99.90;;;;;;6214607;23;20174;-70
2021/07/11 21:15:58;;;;;;;8.73;7.47;;;21.70;99.90;;;;;;6215039;23;20260;-72
2021/07/11 21:18:26;;;;;;;10.05;7.13;;;21.70;99.90;;;;;;6213896;23;20261;-72
2021/07/11 21:20:53;;;;;;;10.98;8.25;;;21.80;99.90;;;;;;6215683;23;20184;-69
2021/07/11 21:23:20;;;;;;;10.80;6.35;;;21.90;99.90;;;;;;6215881;23;20233;-72
2021/07/11 21:25:47;;;;;;;6.47;5.70;;;21.90;99.90;;;;;;6214180;23;20241;-72
2021/07/11 21:28:13;;;;;;;13.32;8.18;;;21.90;99.90;;;;;;6215331;23;20206;-72
2021/07/11 21:30:40;;;;;;;6.65;5.20;;;21.90;99.90;;;;;;6215308;23;20257;-72
2021/07/11 21:33:07;;;;;;;11.65;7.15;;;21.80;99.90;;;;;;6215637;23;20240;-73
2021/07/11 21:35:35;;;;;;;6.30;5.20;;;21.70;99.90;;;;;;6214489;23;20253;-73
2021/07/11 21:38:02;;;;;;;6.68;5.28;;;21.70;99.90;;;;;;6214493;23;20197;-72
2021/07/11 21:40:29;;;;;;;6.05;4.68;;;21.70;99.90;;;;;;6215565;23;20182;-71
2021/07/11 21:42:56;;;;;;;6.38;5.00;;;21.60;99.90;;;;;;6214410;23;20214;-73
2021/07/11 21:45:23;;;;;;;5.63;4.25;;;21.60;99.90;;;;;;6213747;23;20166;-72
2021/07/11 21:47:51;;;;;;;3.90;3.50;;;21.60;99.90;;;;;;6214715;23;20178;-72
2021/07/11 21:50:19;;;;;;;4.13;3.63;;;21.50;99.90;;;;;;6214200;23;20185;-72
2021/07/11 21:52:48;;;;;;;7.80;4.07;;;21.50;99.90;;;;;;6214968;23;20178;-73
2021/07/11 21:55:15;;;;;;;12.43;8.23;;;21.50;99.90;;;;;;6214324;23;20181;-72
2021/07/11 21:57:42;;;;;;;4.30;3.78;;;21.50;99.90;;;;;;6215302;23;20178;-71
2021/07/11 22:00:14;;;;;;;5.20;4.00;;;21.50;99.90;;;;;;6214775;23;20198;-72
2021/07/11 22:02:41;;;;;;;8.13;3.72;;;21.40;99.90;;;;;;6215818;23;20166;-71
2021/07/11 22:05:08;;;;;;;6.97;4.90;;;21.40;99.90;;;;;;6214668;23;20261;-73
2021/07/11 22:07:36;;;;;;;8.55;4.30;;;21.40;99.90;;;;;;6215372;23;20178;-72
2021/07/11 22:10:05;;;;;;;4.57;3.75;;;21.40;99.90;;;;;;6214888;23;20181;-73
2021/07/11 22:12:32;;;;;;;8.30;5.07;;;21.40;99.90;;;;;;6214819;23;20184;-71
2021/07/11 22:14:59;;;;;;;7.53;5.97;;;21.30;99.90;;;;;;6214743;23;20195;-72
2021/07/11 22:17:26;;;;;;;9.57;5.10;;;21.30;99.90;;;;;;6214889;23;20230;-72
2021/07/11 22:19:53;;;;;;;8.95;5.95;;;21.30;99.90;;;;;;6214091;23;20198;-72
2021/07/11 22:22:20;;;;;;;7.45;5.45;;;21.20;99.90;;;;;;6214694;23;20228;-73
2021/07/11 22:24:47;;;;;;;7.13;5.43;;;21.30;99.90;;;;;;6214260;23;20261;-72
2021/07/11 22:27:15;;;;;;;6.47;5.20;;;21.30;99.90;;;;;;6215404;23;20285;-72
2021/07/11 22:29:42;;;;;;;6.97;6.13;;;21.30;99.90;;;;;;6215213;23;20189;-75
2021/07/11 22:32:10;;;;;;;7.07;6.10;;;21.30;99.90;;;;;;6214746;23;20220;-72
2021/07/11 22:34:38;;;;;;;7.07;5.53;;;21.30;99.90;;;;;;6213813;23;20192;-73
2021/07/11 22:37:05;;;;;;;7.15;6.07;;;21.30;99.90;;;;;;6212774;23;20185;-72
2021/07/11 22:39:32;;;;;;;7.72;6.20;;;21.30;99.90;;;;;;6212628;23;20468;-69
2021/07/11 22:42:00;;;;;;;8.40;6.32;;;21.30;99.90;;;;;;6214909;23;20280;-70
2021/07/11 22:44:29;;;;;;;9.90;6.93;;;21.40;99.90;;;;;;6214406;23;20323;-71
2021/07/11 22:46:57;;;;;;;10.38;8.15;;;21.40;99.90;;;;;;6214370;23;20174;-71
2021/07/11 22:49:25;;;;;;;8.55;6.20;;;21.60;99.90;;;;;;6214976;23;20170;-71
2021/07/11 22:51:52;;;;;;;6.65;6.03;;;21.50;99.90;;;;;;6213902;23;20174;-72
2021/07/11 22:54:19;;;;;;;7.35;6.60;;;21.50;99.90;;;;;;6214509;23;20234;-71
2021/07/11 22:56:46;;;;;;;10.27;7.28;;;21.50;99.90;;;;;;6214436;23;20197;-71
2021/07/11 22:59:13;;;;;;;8.15;6.68;;;21.50;99.90;;;;;;6214012;23;20369;-71
2021/07/11 23:01:42;;;;;;;8.27;6.68;;;21.50;99.90;;;;;;6213360;23;20285;-73
2021/07/11 23:04:09;;;;;;;9.48;7.20;;;21.50;99.90;;;;;;6214236;23;20257;-71
2021/07/11 23:06:36;;;;;;;10.73;8.43;;;21.50;99.90;;;;;;6214266;23;20181;-72
2021/07/11 23:09:03;;;;;;;9.10;7.35;;;21.50;99.90;;;;;;6214165;23;20174;-71
2021/07/11 23:11:30;;;;;;;10.52;8.52;;;21.60;99.90;;;;;;6215097;23;20180;-72
2021/07/11 23:13:57;;;;;;;9.18;7.43;;;21.60;99.90;;;;;;6214797;23;20285;-72
2021/07/11 23:16:23;;;;;;;8.45;7.28;;;21.60;99.90;;;;;;6213700;23;20256;-71
2021/07/11 23:18:52;;;;;;;11.07;8.65;;;21.70;99.90;;;;;;6213918;23;20676;-72
2021/07/11 23:21:19;;;;;;;12.48;10.10;;;21.70;99.90;;;;;;6214691;23;20180;-73
2021/07/11 23:23:46;;;;;;;10.65;8.00;;;21.70;99.90;;;;;;6214322;23;20205;-72
2021/07/11 23:26:13;;;;;;;8.70;6.68;;;21.60;99.90;;;;;;6214610;23;20630;-71
2021/07/11 23:28:40;;;;;;;8.85;7.03;;;21.70;99.90;;;;;;6214223;23;20235;-71
2021/07/11 23:31:07;;;;;;;8.30;6.95;;;21.70;99.90;;;;;;6214181;23;20205;-71
2021/07/11 23:33:34;;;;;;;9.88;6.43;;;21.60;99.90;;;;;;6214493;23;20178;-72
2021/07/11 23:36:02;;;;;;;7.65;6.95;;;21.60;99.90;;;;;;6213543;23;20376;-71
2021/07/11 23:38:29;;;;;;;9.65;6.85;;;21.60;99.90;;;;;;6212761;23;20201;-72
2021/07/11 23:40:56;;;;;;;9.95;8.05;;;21.60;99.90;;;;;;6214532;23;20180;-72
2021/07/11 23:43:23;;;;;;;14.07;11.57;;;21.50;99.90;;;;;;6214362;23;20268;-71
2021/07/11 23:45:50;;;;;;;7.10;6.40;;;21.60;99.90;;;;;;6214190;23;20253;-72
2021/07/11 23:48:16;;;;;;;7.68;6.88;;;21.50;99.90;;;;;;6216228;23;20174;-71
2021/07/11 23:50:43;;;;;;;8.90;7.97;;;21.50;99.90;;;;;;6217305;23;20261;-72
2021/07/11 23:53:12;;;;;;;7.93;6.78;;;21.50;99.90;;;;;;6217535;23;20173;-71
2021/07/11 23:55:38;;;;;;;9.32;7.53;;;21.50;99.90;;;;;;6217283;23;20184;-72
2021/07/11 23:58:05;;;;;;;8.68;7.45;;;21.50;99.90;;;;;;6216663;23;20196;-71
